Time;durP1;ratioP1;P1;durP2;ratioP2;P2;SDS_P1;SDS_P2;PMS_P1;PMS_P2;Temp;Humidity;BMP_temperature;BMP_pressure;BME280_temperature;BME280_humidity;BME280_pressure;Samples;Min_cycle;Max_cycle;Signal;HPM_P1;HPM_P2
2023/07/04 00:01:01;;;;;;;4.70;4.30;;;23.30;55.40;;;;;;4965356;28;20445;-90
2023/07/04 00:03:28;;;;;;;6.80;4.73;;;23.30;55.40;;;;;;4947056;28;20418;-90
2023/07/04 00:05:55;;;;;;;8.20;5.00;;;23.30;55.50;;;;;;4953516;29;20446;-89
2023/07/04 00:08:23;;;;;;;6.97;4.47;;;23.30;55.60;;;;;;4928794;29;20527;-92
2023/07/04 00:10:52;;;;;;;5.27;4.20;;;23.30;56.20;;;;;;4929120;29;20613;-95
2023/07/04 00:13:19;;;;;;;7.80;4.00;;;23.30;55.70;;;;;;4946323;29;20450;-91
2023/07/04 00:15:46;;;;;;;9.00;4.10;;;23.30;55.70;;;;;;4929266;29;20556;-91
2023/07/04 00:18:12;;;;;;;11.80;4.60;;;23.30;55.80;;;;;;4945943;29;20479;-90
2023/07/04 00:20:38;;;;;;;6.33;4.30;;;23.20;55.80;;;;;;4931386;29;20443;-90
2023/07/04 00:23:04;;;;;;;6.47;4.70;;;23.20;55.80;;;;;;4964027;29;20423;-91
2023/07/04 00:25:32;;;;;;;5.20;4.70;;;23.20;55.90;;;;;;4932903;29;20963;-92
2023/07/04 00:27:58;;;;;;;7.30;4.90;;;23.20;55.90;;;;;;4948135;29;20802;-89
2023/07/04 00:30:25;;;;;;;8.17;5.00;;;23.20;56.00;;;;;;4931883;29;20530;-89
2023/07/04 00:32:51;;;;;;;7.57;4.20;;;23.20;56.00;;;;;;4951370;29;20462;-91
2023/07/04 00:35:17;;;;;;;5.33;4.27;;;23.20;56.10;;;;;;4952286;29;20471;-91
2023/07/04 00:37:43;;;;;;;5.97;4.40;;;23.20;56.10;;;;;;4928667;29;20462;-91
2023/07/04 00:40:12;;;;;;;5.63;4.20;;;23.20;56.70;;;;;;4927510;29;20427;-91
2023/07/04 00:42:41;;;;;;;6.00;4.17;;;23.20;56.20;;;;;;4927873;29;20463;-92
2023/07/04 00:45:20;;;;;;;7.20;4.60;;;23.20;56.20;;;;;;4927412;29;20435;-89
2023/07/04 00:47:55;;;;;;;7.20;4.47;;;23.10;56.20;;;;;;4927141;29;20546;-90
2023/07/04 00:50:25;;;;;;;6.27;4.47;;;23.10;56.20;;;;;;4943667;29;20419;-93
2023/07/04 00:52:53;;;;;;;12.73;4.37;;;23.10;56.30;;;;;;4958490;29;20454;-91
2023/07/04 00:55:21;;;;;;;9.73;5.17;;;23.10;56.30;;;;;;4926684;29;20471;-92
2023/07/04 00:57:47;;;;;;;6.17;4.40;;;23.10;56.40;;;;;;4925890;29;20518;-91
2023/07/04 01:00:19;;;;;;;6.60;4.00;;;23.10;56.50;;;;;;4927372;29;20496;-91
2023/07/04 01:02:47;;;;;;;6.00;4.30;;;23.10;56.40;;;;;;4925954;29;20411;-90
2023/07/04 01:05:23;;;;;;;8.20;4.70;;;23.10;56.50;;;;;;4943381;29;20455;-90
2023/07/04 01:08:07;;;;;;;8.03;4.00;;;23.10;56.60;;;;;;4947612;29;20430;-89
2023/07/04 01:10:42;;;;;;;9.53;4.20;;;23.10;56.70;;;;;;4943456;29;20418;-90
2023/07/04 01:13:28;;;;;;;5.60;4.30;;;23.00;56.60;;;;;;4927069;29;20450;-89
2023/07/04 01:15:54;;;;;;;7.30;4.60;;;23.00;56.70;;;;;;4942797;29;20474;-91
2023/07/04 01:18:20;;;;;;;9.60;4.40;;;23.00;56.70;;;;;;4942069;29;20435;-90
2023/07/04 01:20:48;;;;;;;5.70;4.47;;;23.00;56.80;;;;;;4940937;29;20517;-91
2023/07/04 01:23:45;;;;;;;5.70;4.67;;;23.00;56.80;;;;;;4925597;29;20427;-90
2023/07/04 01:26:20;;;;;;;8.40;4.80;;;23.00;56.90;;;;;;4941192;29;20423;-90
2023/07/04 01:28:51;;;;;;;4.93;4.13;;;23.00;57.50;;;;;;4909398;29;20485;-90
2023/07/04 01:31:22;;;;;;;7.70;4.37;;;23.00;57.00;;;;;;4927512;29;20475;-90
2023/07/04 01:33:54;;;;;;;6.37;3.90;;;22.90;57.00;;;;;;4957099;29;20419;-90
2023/07/04 01:36:30;;;;;;;8.27;3.97;;;22.90;57.10;;;;;;4924993;29;20863;-90
2023/07/04 01:38:56;;;;;;;9.37;4.50;;;23.00;57.20;;;;;;4941187;29;20498;-91
2023/07/04 01:41:24;;;;;;;6.20;4.30;;;22.90;57.10;;;;;;4940916;29;20427;-88
2023/07/04 01:44:04;;;;;;;8.20;4.33;;;22.90;57.20;;;;;;4910247;29;20526;-92
2023/07/04 01:46:31;;;;;;;9.00;4.27;;;22.90;57.40;;;;;;4941109;29;20429;-89
2023/07/04 01:48:58;;;;;;;8.40;4.80;;;22.90;57.20;;;;;;4941351;29;20485;-90
2023/07/04 01:51:28;;;;;;;6.43;4.00;;;22.90;57.30;;;;;;4940801;29;20437;-90
2023/07/04 01:53:56;;;;;;;5.20;4.70;;;22.90;57.30;;;;;;4940504;29;20755;-91
2023/07/04 01:56:22;;;;;;;7.03;4.57;;;22.90;57.40;;;;;;4909831;29;20948;-89
2023/07/04 01:58:48;;;;;;;6.97;4.13;;;22.90;57.40;;;;;;4941047;29;20415;-93
2023/07/04 02:01:17;;;;;;;7.50;5.33;;;22.90;57.50;;;;;;4944523;29;20447;-89
2023/07/04 02:03:45;;;;;;;9.10;5.00;;;22.90;57.50;;;;;;4944983;29;20522;-90
2023/07/04 02:06:17;;;;;;;9.00;4.20;;;22.80;57.60;;;;;;4919422;28;20469;-83
2023/07/04 02:08:43;;;;;;;9.63;4.77;;;22.80;57.60;;;;;;4927012;29;20463;-84
2023/07/04 02:11:09;;;;;;;5.77;3.77;;;22.80;57.70;;;;;;4925525;28;20453;-84
2023/07/04 02:13:35;;;;;;;5.00;4.00;;;22.80;57.70;;;;;;4978706;28;20746;-84
2023/07/04 02:16:04;;;;;;;5.67;4.20;;;22.80;57.70;;;;;;4958332;29;20547;-83
2023/07/04 02:18:30;;;;;;;7.53;4.40;;;22.80;57.70;;;;;;4972606;28;20449;-83
2023/07/04 02:21:03;;;;;;;10.37;5.23;;;22.80;57.80;;;;;;4961736;28;20449;-82
2023/07/04 02:23:30;;;;;;;5.80;4.33;;;22.80;57.80;;;;;;4978861;28;20406;-84
2023/07/04 02:25:59;;;;;;;6.77;4.13;;;22.80;57.80;;;;;;4945714;28;20453;-83
2023/07/04 02:28:27;;;;;;;9.97;4.80;;;22.80;57.80;;;;;;4962141;28;20414;-84
2023/07/04 02:30:58;;;;;;;12.20;4.83;;;22.80;57.90;;;;;;4961988;28;20545;-82
2023/07/04 02:33:28;;;;;;;5.37;4.60;;;22.80;57.90;;;;;;4961496;28;20738;-84
2023/07/04 02:35:57;;;;;;;6.03;4.20;;;22.70;58.00;;;;;;4961531;28;20539;-82
2023/07/04 02:38:22;;;;;;;6.70;4.40;;;22.70;58.00;;;;;;4961436;28;20525;-83
2023/07/04 02:40:52;;;;;;;5.87;4.03;;;22.70;58.00;;;;;;4961397;28;20426;-84
2023/07/04 02:43:18;;;;;;;7.67;5.07;;;22.70;58.00;;;;;;4961218;28;20434;-82
2023/07/04 02:45:45;;;;;;;7.80;5.60;;;22.70;58.10;;;;;;4944527;29;20558;-83
2023/07/04 02:48:14;;;;;;;6.90;5.07;;;22.70;58.10;;;;;;4926432;29;20428;-83
2023/07/04 02:50:43;;;;;;;6.17;4.33;;;22.70;58.10;;;;;;4932170;29;20529;-84
2023/07/04 02:53:09;;;;;;;9.83;5.00;;;22.70;58.10;;;;;;4926376;29;20536;-83
2023/07/04 02:55:35;;;;;;;5.27;4.10;;;22.70;58.10;;;;;;4958280;29;20884;-84
2023/07/04 02:58:06;;;;;;;9.30;4.50;;;22.70;58.20;;;;;;4939984;28;20429;-83
2023/07/04 03:00:35;;;;;;;8.53;4.57;;;22.60;58.20;;;;;;4957680;29;20431;-83
2023/07/04 03:03:04;;;;;;;8.60;4.67;;;22.60;58.20;;;;;;4958683;28;20510;-84
2023/07/04 03:05:32;;;;;;;8.30;4.53;;;22.60;58.20;;;;;;4960687;28;20843;-83
2023/07/04 03:07:57;;;;;;;4.90;4.20;;;22.60;58.20;;;;;;4960907;28;20840;-84
2023/07/04 03:10:23;;;;;;;7.27;4.17;;;22.60;58.50;;;;;;4944610;28;20441;-83
2023/07/04 03:12:50;;;;;;;8.60;5.00;;;22.60;58.40;;;;;;4944959;28;20198;-83
2023/07/04 03:15:17;;;;;;;7.10;4.87;;;22.60;58.50;;;;;;4944417;28;20540;-81
2023/07/04 03:17:50;;;;;;;5.87;4.80;;;22.60;58.60;;;;;;4960236;28;20442;-83
2023/07/04 03:20:19;;;;;;;8.00;4.80;;;22.50;58.40;;;;;;4960669;28;20425;-83
2023/07/04 03:22:51;;;;;;;7.37;4.80;;;22.50;58.60;;;;;;4961019;28;20406;-83
2023/07/04 03:25:17;;;;;;;7.80;4.77;;;22.60;58.70;;;;;;4976985;28;20800;-82
2023/07/04 03:27:47;;;;;;;7.33;4.80;;;22.50;58.70;;;;;;4940314;29;20529;-82
2023/07/04 03:30:19;;;;;;;6.73;4.97;;;22.50;58.70;;;;;;4958436;28;20478;-84
2023/07/04 03:32:51;;;;;;;8.80;5.03;;;22.50;58.80;;;;;;4943302;28;20457;-84
2023/07/04 03:35:17;;;;;;;6.60;4.40;;;22.50;58.80;;;;;;4959544;28;20425;-82
2023/07/04 03:37:45;;;;;;;12.60;5.67;;;22.50;58.80;;;;;;4959643;28;20505;-84
2023/07/04 03:40:12;;;;;;;8.20;4.77;;;22.50;59.00;;;;;;4976422;28;20477;-82
2023/07/04 03:42:40;;;;;;;9.80;4.63;;;22.50;59.00;;;;;;4959569;28;20501;-83
2023/07/04 03:45:07;;;;;;;5.70;4.33;;;22.50;59.10;;;;;;4958591;28;20894;-83
2023/07/04 03:47:33;;;;;;;9.50;5.00;;;22.40;59.00;;;;;;4959327;28;20246;-84
2023/07/04 03:50:01;;;;;;;11.87;5.30;;;22.40;59.10;;;;;;4959472;28;20423;-83
2023/07/04 03:52:28;;;;;;;6.77;4.53;;;22.40;59.00;;;;;;4942993;28;20453;-84
2023/07/04 03:54:56;;;;;;;6.80;4.70;;;22.40;59.20;;;;;;4958743;28;20857;-84
2023/07/04 03:57:22;;;;;;;6.80;4.20;;;22.40;59.10;;;;;;4942746;28;20468;-83
2023/07/04 03:59:53;;;;;;;6.40;5.07;;;22.40;59.20;;;;;;4958764;28;20804;-83
2023/07/04 04:02:19;;;;;;;7.93;4.60;;;22.40;59.20;;;;;;4927150;28;20477;-83
2023/07/04 04:04:46;;;;;;;7.83;4.60;;;22.40;59.30;;;;;;4942479;28;20947;-83
2023/07/04 04:07:12;;;;;;;7.27;5.33;;;22.40;59.40;;;;;;4958635;28;20194;-83
2023/07/04 04:09:38;;;;;;;5.83;4.60;;;22.40;59.30;;;;;;4942463;28;20454;-83
2023/07/04 04:12:06;;;;;;;8.80;4.60;;;22.40;59.30;;;;;;4958591;28;20238;-84
2023/07/04 04:14:34;;;;;;;6.93;4.70;;;22.40;59.30;;;;;;4942744;28;20501;-83
2023/07/04 04:17:03;;;;;;;7.50;4.80;;;22.30;59.10;;;;;;4975550;28;20524;-83
2023/07/04 04:19:29;;;;;;;11.60;5.83;;;22.30;59.30;;;;;;4958762;28;20426;-82
2023/07/04 04:21:57;;;;;;;6.47;5.10;;;22.30;59.50;;;;;;4941669;28;20422;-83
2023/07/04 04:24:23;;;;;;;10.23;5.70;;;22.30;59.40;;;;;;4958208;28;20418;-82
2023/07/04 04:26:50;;;;;;;8.03;5.30;;;22.30;59.50;;;;;;4942100;28;20468;-82
2023/07/04 04:29:22;;;;;;;10.67;5.50;;;22.30;59.40;;;;;;4942665;28;20497;-84
2023/07/04 04:31:48;;;;;;;6.77;4.90;;;22.30;59.60;;;;;;4975162;28;20536;-83
2023/07/04 04:34:16;;;;;;;6.23;5.20;;;22.30;59.70;;;;;;4977183;28;20418;-83
2023/07/04 04:36:45;;;;;;;7.90;4.40;;;22.30;59.70;;;;;;4968286;28;20457;-82
2023/07/04 04:39:10;;;;;;;10.07;4.83;;;22.30;59.80;;;;;;4942629;28;20517;-83
2023/07/04 04:41:44;;;;;;;6.33;4.47;;;22.30;59.80;;;;;;4975281;28;20446;-83
2023/07/04 04:44:09;;;;;;;11.20;4.83;;;22.30;60.00;;;;;;4975481;28;20788;-84
2023/07/04 04:46:48;;;;;;;6.83;4.60;;;22.20;59.90;;;;;;4975141;28;20457;-85
2023/07/04 04:49:17;;;;;;;10.67;5.10;;;22.20;60.00;;;;;;4957803;28;20510;-83
2023/07/04 04:51:45;;;;;;;8.33;4.63;;;22.20;60.20;;;;;;4975187;28;20402;-84
2023/07/04 04:54:14;;;;;;;8.80;4.53;;;22.20;60.30;;;;;;4975200;28;20414;-82
2023/07/04 04:56:40;;;;;;;5.43;4.90;;;22.20;60.30;;;;;;4941834;28;20191;-82
2023/07/04 04:59:08;;;;;;;6.57;4.70;;;22.20;60.30;;;;;;4975226;28;20485;-82
2023/07/04 05:01:37;;;;;;;7.70;4.90;;;22.20;60.50;;;;;;4974035;28;20473;-83
2023/07/04 05:04:06;;;;;;;9.07;5.77;;;22.20;60.40;;;;;;4958513;28;20517;-83
2023/07/04 05:06:32;;;;;;;6.77;4.47;;;22.20;60.70;;;;;;4956529;28;20505;-84
2023/07/04 05:08:58;;;;;;;9.47;5.23;;;22.20;60.80;;;;;;4973587;28;20753;-81
2023/07/04 05:11:24;;;;;;;6.43;4.20;;;22.10;60.70;;;;;;4935090;28;20542;-83
2023/07/04 05:13:52;;;;;;;8.03;6.00;;;22.10;60.70;;;;;;4942338;28;20819;-81
2023/07/04 05:16:21;;;;;;;7.67;4.80;;;22.10;60.90;;;;;;4957039;28;20525;-82
2023/07/04 05:18:51;;;;;;;5.50;4.77;;;22.10;60.90;;;;;;4974649;28;20441;-80
2023/07/04 05:21:22;;;;;;;6.43;4.40;;;22.10;61.20;;;;;;4974254;28;20418;-81
2023/07/04 05:23:50;;;;;;;7.93;5.30;;;22.10;61.30;;;;;;4957279;28;20512;-82
2023/07/04 05:26:24;;;;;;;6.47;4.80;;;22.10;61.50;;;;;;4974032;28;20465;-82
2023/07/04 05:28:52;;;;;;;10.70;5.00;;;22.10;61.50;;;;;;4950204;28;20469;-82
2023/07/04 05:31:24;;;;;;;8.80;4.97;;;22.10;61.60;;;;;;4974391;28;20456;-81
2023/07/04 05:33:52;;;;;;;9.27;5.50;;;22.10;61.70;;;;;;4956821;28;20439;-83
2023/07/04 05:36:22;;;;;;;10.47;5.50;;;22.10;61.50;;;;;;4957220;28;20910;-80
2023/07/04 05:38:53;;;;;;;9.70;5.57;;;22.10;61.50;;;;;;4957133;28;20445;-82
2023/07/04 05:41:22;;;;;;;8.47;5.13;;;22.10;62.40;;;;;;4974128;28;20988;-81
2023/07/04 05:43:49;;;;;;;8.60;5.23;;;22.00;62.20;;;;;;4957246;28;20442;-82
2023/07/04 05:46:16;;;;;;;10.20;5.93;;;22.00;62.20;;;;;;4961439;28;20485;-82
2023/07/04 05:48:48;;;;;;;11.80;5.17;;;22.00;62.40;;;;;;4958876;28;20478;-82
2023/07/04 05:51:18;;;;;;;10.47;5.87;;;22.00;62.50;;;;;;4964823;28;20430;-82
2023/07/04 05:53:51;;;;;;;11.37;5.40;;;22.00;62.40;;;;;;4957650;28;20453;-81
2023/07/04 05:56:30;;;;;;;7.23;5.70;;;22.00;62.60;;;;;;4957327;28;20493;-81
2023/07/04 05:59:00;;;;;;;8.57;5.53;;;22.00;62.70;;;;;;4973364;28;20430;-83
2023/07/04 06:01:44;;;;;;;8.87;5.30;;;22.00;62.90;;;;;;4973998;28;20430;-82
2023/07/04 06:04:12;;;;;;;9.00;5.13;;;22.00;62.90;;;;;;4974987;28;20426;-82
2023/07/04 06:06:52;;;;;;;12.93;5.67;;;22.00;62.90;;;;;;4962488;28;20493;-80
2023/07/04 06:09:19;;;;;;;12.27;5.27;;;22.00;63.00;;;;;;4941152;28;20438;-81
2023/07/04 06:11:46;;;;;;;9.20;5.10;;;21.90;62.80;;;;;;4974235;28;20422;-83
2023/07/04 06:14:21;;;;;;;11.63;5.53;;;22.00;63.00;;;;;;4973872;28;20848;-82
2023/07/04 06:16:47;;;;;;;11.10;5.70;;;22.00;63.00;;;;;;4925472;28;20422;-82
2023/07/04 06:19:12;;;;;;;9.37;5.00;;;21.90;63.10;;;;;;4941137;28;20430;-82
2023/07/04 06:21:38;;;;;;;12.20;5.07;;;22.00;63.40;;;;;;4956996;28;20353;-83
2023/07/04 06:24:09;;;;;;;11.70;5.33;;;21.90;63.20;;;;;;4941522;28;20187;-82
2023/07/04 06:26:35;;;;;;;12.93;5.87;;;21.90;63.30;;;;;;4940607;28;20485;-81
2023/07/04 06:29:04;;;;;;;12.33;5.47;;;21.90;64.20;;;;;;4941280;28;20763;-83
2023/07/04 06:31:32;;;;;;;11.13;5.93;;;21.90;63.40;;;;;;4972619;28;20521;-82
2023/07/04 06:33:59;;;;;;;9.10;5.50;;;21.90;63.50;;;;;;4972697;28;20450;-83
2023/07/04 06:36:25;;;;;;;7.87;5.70;;;21.90;63.40;;;;;;4944981;29;20470;-84
2023/07/04 06:38:52;;;;;;;8.23;5.00;;;21.90;63.40;;;;;;4921886;29;20510;-83
2023/07/04 06:41:18;;;;;;;11.73;5.90;;;21.90;63.40;;;;;;4954358;29;20460;-81
2023/07/04 06:43:46;;;;;;;13.63;5.97;;;21.90;63.30;;;;;;4921724;29;20890;-83
2023/07/04 06:46:14;;;;;;;8.07;5.67;;;21.90;63.50;;;;;;4955142;28;20663;-83
2023/07/04 06:48:40;;;;;;;8.80;5.30;;;21.90;63.50;;;;;;4941287;29;20403;-82
2023/07/04 06:51:12;;;;;;;9.77;6.33;;;21.90;63.50;;;;;;4957963;29;20545;-81
2023/07/04 06:53:41;;;;;;;11.40;5.77;;;21.90;63.50;;;;;;4941067;29;20450;-82
2023/07/04 06:56:08;;;;;;;8.60;5.90;;;21.90;63.50;;;;;;4957674;29;20422;-83
2023/07/04 06:58:40;;;;;;;10.87;6.90;;;21.90;63.60;;;;;;4957844;29;20419;-82
2023/07/04 07:01:07;;;;;;;10.57;6.50;;;21.90;63.60;;;;;;4957777;29;20446;-83
2023/07/04 07:03:36;;;;;;;7.70;5.97;;;21.90;63.60;;;;;;4959802;29;20419;-82
2023/07/04 07:06:06;;;;;;;11.73;5.80;;;21.90;63.50;;;;;;4942787;29;20561;-83
2023/07/04 07:08:33;;;;;;;14.53;5.80;;;21.90;63.40;;;;;;4962631;29;20528;-82
2023/07/04 07:11:08;;;;;;;9.97;6.50;;;21.90;63.20;;;;;;4946987;29;20454;-82
2023/07/04 07:13:41;;;;;;;10.00;5.73;;;21.90;63.40;;;;;;4963698;29;21165;-84
2023/07/04 07:16:13;;;;;;;9.00;5.50;;;21.90;63.40;;;;;;4954408;29;20884;-79
2023/07/04 07:18:40;;;;;;;11.07;6.53;;;21.90;63.30;;;;;;4926945;29;20450;-82
2023/07/04 07:21:08;;;;;;;9.23;5.47;;;21.90;63.40;;;;;;4941529;29;20522;-83
2023/07/04 07:23:35;;;;;;;7.53;5.80;;;21.90;63.50;;;;;;4925049;29;20435;-82
2023/07/04 07:26:06;;;;;;;12.23;6.97;;;21.90;63.20;;;;;;4941000;29;20470;-82
2023/07/04 07:28:38;;;;;;;9.27;6.37;;;21.90;62.90;;;;;;4924744;29;20435;-83
2023/07/04 07:31:09;;;;;;;10.07;6.13;;;21.90;63.00;;;;;;4956181;29;20439;-81
2023/07/04 07:33:39;;;;;;;14.33;6.43;;;22.00;63.00;;;;;;4945093;29;20538;-82
2023/07/04 07:36:10;;;;;;;8.50;6.23;;;21.90;62.60;;;;;;4949650;28;20520;-83
2023/07/04 07:38:39;;;;;;;7.50;5.53;;;21.90;62.70;;;;;;4944448;28;20414;-84
2023/07/04 07:41:08;;;;;;;9.20;5.73;;;22.00;62.70;;;;;;4959352;28;20470;-81
2023/07/04 07:43:38;;;;;;;7.90;6.00;;;22.00;62.30;;;;;;4943386;28;20422;-82
2023/07/04 07:46:10;;;;;;;8.70;5.63;;;22.00;62.50;;;;;;4961927;28;20481;-82
2023/07/04 07:48:36;;;;;;;8.47;4.97;;;22.00;62.10;;;;;;4955922;28;20441;-83
2023/07/04 07:51:03;;;;;;;6.37;5.60;;;22.00;62.10;;;;;;4959700;28;20457;-81
2023/07/04 07:53:29;;;;;;;8.13;6.43;;;22.00;62.00;;;;;;4959535;28;20593;-82
2023/07/04 07:55:55;;;;;;;6.87;5.70;;;22.00;61.90;;;;;;4943380;28;20426;-82
2023/07/04 07:58:21;;;;;;;9.70;6.77;;;22.00;61.70;;;;;;4958104;28;20442;-81
2023/07/04 08:00:47;;;;;;;5.30;4.80;;;22.00;61.80;;;;;;4976291;28;20472;-81
2023/07/04 08:03:18;;;;;;;9.53;5.50;;;22.00;61.80;;;;;;4976130;28;20426;-83
2023/07/04 08:05:48;;;;;;;9.00;6.20;;;22.00;61.50;;;;;;4976172;28;20828;-82
2023/07/04 08:08:17;;;;;;;6.00;4.90;;;22.00;61.60;;;;;;4958692;28;20827;-83
2023/07/04 08:10:43;;;;;;;8.40;5.77;;;22.00;61.60;;;;;;4942917;28;20419;-82
2023/07/04 08:13:10;;;;;;;6.00;5.50;;;22.00;61.60;;;;;;4975552;28;20406;-81
2023/07/04 08:15:37;;;;;;;7.83;5.10;;;22.00;61.70;;;;;;4942923;28;20422;-82
2023/07/04 08:18:10;;;;;;;6.10;5.50;;;22.00;61.70;;;;;;4958996;28;20565;-83
2023/07/04 08:20:38;;;;;;;7.90;5.60;;;22.00;61.70;;;;;;4975748;28;20441;-82
2023/07/04 08:23:06;;;;;;;10.97;6.50;;;22.00;61.70;;;;;;4975712;28;20450;-82
2023/07/04 08:25:38;;;;;;;8.50;5.73;;;22.10;61.70;;;;;;4975295;28;20466;-81
2023/07/04 08:28:04;;;;;;;9.40;5.83;;;22.10;61.50;;;;;;4975402;28;20442;-81
2023/07/04 08:30:35;;;;;;;8.17;5.40;;;22.10;61.50;;;;;;4942534;28;20418;-82
2023/07/04 08:33:03;;;;;;;10.10;5.07;;;22.10;61.30;;;;;;4942791;28;20518;-82
2023/07/04 08:35:29;;;;;;;7.07;4.93;;;22.10;61.10;;;;;;4942671;28;20454;-83
2023/07/04 08:37:57;;;;;;;8.33;5.90;;;22.10;61.00;;;;;;4975540;28;20433;-81
2023/07/04 08:40:23;;;;;;;4.90;4.50;;;22.10;60.90;;;;;;4958452;28;20183;-81
2023/07/04 08:42:49;;;;;;;8.53;5.27;;;22.20;60.90;;;;;;4975455;28;20417;-84
2023/07/04 08:45:28;;;;;;;7.60;5.40;;;22.20;60.80;;;;;;4975155;28;20775;-81
2023/07/04 08:47:57;;;;;;;6.43;5.30;;;22.20;60.60;;;;;;4958071;28;20512;-81
2023/07/04 08:50:32;;;;;;;6.30;4.67;;;22.20;60.20;;;;;;4975138;28;20727;-81
2023/07/04 08:53:11;;;;;;;5.90;5.30;;;22.20;60.00;;;;;;4942233;28;20426;-82
2023/07/04 08:55:48;;;;;;;8.27;5.43;;;22.20;59.90;;;;;;4974932;28;20453;-83
2023/07/04 08:58:17;;;;;;;4.80;4.40;;;22.20;59.70;;;;;;4957981;28;20568;-81
2023/07/04 09:00:44;;;;;;;8.00;4.87;;;22.20;59.60;;;;;;4957782;28;20446;-82
2023/07/04 09:03:21;;;;;;;6.50;5.03;;;22.20;59.60;;;;;;4957663;28;20824;-80
2023/07/04 09:06:06;;;;;;;6.30;4.40;;;22.30;59.70;;;;;;4957588;28;20691;-82
2023/07/04 09:08:53;;;;;;;7.43;4.87;;;22.30;59.60;;;;;;4941777;28;20540;-82
2023/07/04 09:11:19;;;;;;;7.77;5.90;;;22.30;59.60;;;;;;4941587;28;20910;-80
2023/07/04 09:14:08;;;;;;;6.83;5.33;;;22.30;59.60;;;;;;4957868;28;20467;-83
2023/07/04 09:16:41;;;;;;;7.40;5.17;;;22.30;60.10;;;;;;4974638;28;20417;-82
2023/07/04 09:19:10;;;;;;;8.30;4.97;;;22.40;59.40;;;;;;4927201;29;20467;-81
2023/07/04 09:21:36;;;;;;;6.53;4.93;;;22.40;59.30;;;;;;4963234;29;20455;-81
2023/07/04 09:24:03;;;;;;;7.33;4.67;;;22.40;59.20;;;;;;4940664;29;20929;-82
2023/07/04 09:26:44;;;;;;;7.10;4.60;;;22.40;59.20;;;;;;4922635;29;20557;-84
2023/07/04 09:29:15;;;;;;;5.53;4.97;;;22.40;59.10;;;;;;4923984;29;20491;-82
2023/07/04 09:31:46;;;;;;;4.87;4.43;;;22.50;59.00;;;;;;4925430;29;20471;-80
2023/07/04 09:34:23;;;;;;;6.37;4.60;;;22.50;59.00;;;;;;4966326;29;20407;-80
2023/07/04 09:36:54;;;;;;;8.87;4.97;;;22.50;58.90;;;;;;4938145;28;20464;-81
2023/07/04 09:39:19;;;;;;;8.90;5.00;;;22.50;58.70;;;;;;4957496;28;20450;-82
2023/07/04 09:41:57;;;;;;;5.23;4.80;;;22.50;58.50;;;;;;4957185;28;20833;-83
2023/07/04 09:44:28;;;;;;;5.90;5.33;;;22.60;58.60;;;;;;4974515;28;20605;-82
2023/07/04 09:46:59;;;;;;;5.20;4.73;;;22.60;58.70;;;;;;4974121;28;20492;-82
2023/07/04 09:49:43;;;;;;;7.90;5.33;;;22.60;58.70;;;;;;4957265;28;20833;-82
2023/07/04 09:52:30;;;;;;;4.90;4.40;;;22.60;58.80;;;;;;4957251;28;20445;-81
2023/07/04 09:55:13;;;;;;;6.87;5.30;;;22.60;58.80;;;;;;4957006;28;20449;-82
2023/07/04 09:57:40;;;;;;;7.40;4.63;;;22.70;58.70;;;;;;4974079;28;20508;-83
2023/07/04 10:00:19;;;;;;;5.37;4.87;;;22.70;58.70;;;;;;4957227;28;20433;-83
2023/07/04 10:02:52;;;;;;;5.40;4.90;;;22.70;58.70;;;;;;4974180;28;20763;-82
2023/07/04 10:05:40;;;;;;;6.10;5.03;;;22.80;58.70;;;;;;4940951;28;21006;-84
2023/07/04 10:08:11;;;;;;;8.27;5.03;;;22.80;58.60;;;;;;4974354;28;20434;-81
2023/07/04 10:10:50;;;;;;;4.43;4.10;;;22.80;58.20;;;;;;4974054;28;20433;-82
2023/07/04 10:13:22;;;;;;;7.20;4.50;;;22.90;58.20;;;;;;4974228;28;20883;-83
2023/07/04 10:15:51;;;;;;;8.47;5.00;;;22.90;58.20;;;;;;4956914;28;20778;-81
2023/07/04 10:18:28;;;;;;;6.03;5.20;;;22.90;57.70;;;;;;4974215;28;20422;-82
2023/07/04 10:20:58;;;;;;;4.90;4.50;;;22.90;57.80;;;;;;4959510;28;20440;-81
2023/07/04 10:23:26;;;;;;;6.43;5.23;;;23.00;57.90;;;;;;4960675;28;20426;-82
2023/07/04 10:26:01;;;;;;;6.80;5.13;;;23.00;58.00;;;;;;4944826;28;20462;-80
2023/07/04 10:28:28;;;;;;;5.33;4.63;;;23.00;57.80;;;;;;4944615;28;20469;-82
2023/07/04 10:31:06;;;;;;;5.77;5.13;;;23.00;57.80;;;;;;4960350;28;20503;-81
2023/07/04 10:33:44;;;;;;;5.90;5.30;;;23.10;57.70;;;;;;4960952;28;20406;-84
2023/07/04 10:36:16;;;;;;;5.90;4.63;;;23.10;57.60;;;;;;4960563;28;20492;-83
2023/07/04 10:38:55;;;;;;;6.73;5.50;;;23.10;57.60;;;;;;4960682;28;20422;-82
2023/07/04 10:41:56;;;;;;;5.70;4.97;;;23.20;57.50;;;;;;4977170;28;20426;-81
2023/07/04 10:44:25;;;;;;;7.00;4.40;;;23.20;57.50;;;;;;4960543;28;20462;-82
2023/07/04 10:46:55;;;;;;;6.87;4.63;;;23.20;57.20;;;;;;4960146;28;20827;-82
2023/07/04 10:49:35;;;;;;;5.77;4.80;;;23.30;57.10;;;;;;4960689;28;20537;-84
2023/07/04 10:52:12;;;;;;;5.27;4.83;;;23.30;56.70;;;;;;4960167;28;20418;-82
2023/07/04 10:54:40;;;;;;;5.13;4.70;;;23.30;56.60;;;;;;4960230;28;20414;-82
2023/07/04 10:57:12;;;;;;;7.23;5.27;;;23.30;56.50;;;;;;4977227;28;20793;-80
2023/07/04 10:59:43;;;;;;;5.23;4.73;;;23.40;56.60;;;;;;4960044;28;20421;-79
2023/07/04 11:02:29;;;;;;;5.00;4.60;;;23.40;56.60;;;;;;4959920;28;20489;-82
2023/07/04 11:05:06;;;;;;;4.40;4.00;;;23.40;56.40;;;;;;4944210;28;20445;-81
2023/07/04 11:07:34;;;;;;;4.67;4.20;;;23.50;56.30;;;;;;4944087;28;20433;-82
2023/07/04 11:10:04;;;;;;;5.70;4.67;;;23.50;56.30;;;;;;4944068;28;20526;-81
2023/07/04 11:12:34;;;;;;;5.77;5.20;;;23.50;56.00;;;;;;4976947;28;20483;-83
2023/07/04 11:15:08;;;;;;;3.93;3.63;;;23.60;56.10;;;;;;4959729;28;20414;-81
2023/07/04 11:17:36;;;;;;;4.80;4.13;;;23.60;56.10;;;;;;4959932;28;20421;-82
2023/07/04 11:20:14;;;;;;;5.57;4.90;;;23.70;56.00;;;;;;4961482;28;20517;-82
2023/07/04 11:22:46;;;;;;;5.93;5.30;;;23.70;55.80;;;;;;4974536;28;20438;-81
2023/07/04 11:25:31;;;;;;;4.80;4.40;;;23.70;55.80;;;;;;4986290;28;20497;-82
2023/07/04 11:28:32;;;;;;;5.60;4.80;;;23.70;55.90;;;;;;4976944;28;20719;-81
2023/07/04 11:31:13;;;;;;;6.30;5.07;;;23.80;56.00;;;;;;4959355;28;20430;-81
2023/07/04 11:33:56;;;;;;;8.13;4.67;;;23.80;56.00;;;;;;4943763;28;20421;-82
2023/07/04 11:36:49;;;;;;;7.93;4.80;;;23.80;56.00;;;;;;4943630;28;20457;-84
2023/07/04 11:39:34;;;;;;;5.40;4.90;;;23.90;56.10;;;;;;4943464;28;20489;-81
2023/07/04 11:42:23;;;;;;;6.47;4.83;;;23.90;56.10;;;;;;4976550;28;20836;-82
2023/07/04 11:44:52;;;;;;;6.30;5.80;;;23.90;56.00;;;;;;4959423;28;20440;-82
2023/07/04 11:47:34;;;;;;;13.50;5.80;;;23.90;55.90;;;;;;4976292;28;20422;-81
2023/07/04 11:50:06;;;;;;;5.47;5.00;;;24.00;56.10;;;;;;4959266;28;20536;-82
2023/07/04 11:52:34;;;;;;;6.83;5.27;;;24.00;55.80;;;;;;4927939;28;20453;-83
2023/07/04 11:55:22;;;;;;;8.40;6.00;;;24.00;55.80;;;;;;4959079;28;20480;-81
2023/07/04 11:58:02;;;;;;;6.83;5.43;;;24.10;56.00;;;;;;4976161;28;20465;-81
2023/07/04 12:00:39;;;;;;;7.87;5.40;;;24.10;55.50;;;;;;4959198;28;20484;-81
2023/07/04 12:03:17;;;;;;;9.60;6.97;;;24.10;55.30;;;;;;4959428;28;20446;-82
2023/07/04 12:05:51;;;;;;;6.47;5.97;;;24.10;55.60;;;;;;4942759;28;20466;-81
2023/07/04 12:08:42;;;;;;;9.37;6.20;;;24.20;55.60;;;;;;4923754;29;20946;-82
2023/07/04 12:11:32;;;;;;;6.40;5.77;;;24.20;55.60;;;;;;4939668;29;20423;-83
2023/07/04 12:14:00;;;;;;;7.20;6.60;;;24.20;55.40;;;;;;4956490;29;20913;-82
2023/07/04 12:16:28;;;;;;;5.60;5.20;;;24.20;55.60;;;;;;4955580;29;20442;-83
2023/07/04 12:18:56;;;;;;;6.37;5.77;;;24.20;55.60;;;;;;4940081;29;20411;-80
2023/07/04 12:21:26;;;;;;;6.30;5.70;;;24.20;55.50;;;;;;4955537;29;20514;-82
2023/07/04 12:23:55;;;;;;;6.90;5.47;;;24.30;55.60;;;;;;4939378;29;20513;-83
2023/07/04 12:26:23;;;;;;;7.63;6.47;;;24.30;55.60;;;;;;4939533;29;20474;-82
2023/07/04 12:28:50;;;;;;;8.20;6.03;;;24.40;55.60;;;;;;4956114;29;20485;-83
2023/07/04 12:31:16;;;;;;;6.57;5.50;;;24.40;55.50;;;;;;4955017;29;20506;-81
2023/07/04 12:33:46;;;;;;;6.83;6.07;;;24.40;55.50;;;;;;4956125;29;20431;-82
2023/07/04 12:36:15;;;;;;;8.10;6.10;;;24.40;55.40;;;;;;4958982;28;20210;-83
2023/07/04 12:38:48;;;;;;;6.77;6.27;;;24.40;55.40;;;;;;4975547;28;20433;-83
2023/07/04 12:41:23;;;;;;;8.30;5.63;;;24.40;55.40;;;;;;4958740;28;20415;-83
2023/07/04 12:44:02;;;;;;;6.13;5.50;;;24.50;55.70;;;;;;4957774;28;20548;-83
2023/07/04 12:46:33;;;;;;;7.07;5.90;;;24.50;55.70;;;;;;4942223;28;20469;-82
2023/07/04 12:49:02;;;;;;;6.60;6.00;;;24.50;55.50;;;;;;4974929;28;20490;-82
2023/07/04 12:51:35;;;;;;;7.57;5.93;;;24.50;55.70;;;;;;4958318;28;20818;-82
2023/07/04 12:54:03;;;;;;;9.20;5.97;;;24.50;55.70;;;;;;4957944;28;20402;-82
2023/07/04 12:56:29;;;;;;;6.83;6.23;;;24.60;55.40;;;;;;4974764;28;20454;-83
2023/07/04 12:58:58;;;;;;;9.53;7.00;;;24.60;55.70;;;;;;4975012;28;20440;-83
2023/07/04 13:01:32;;;;;;;8.70;6.50;;;24.60;55.60;;;;;;4957872;28;20426;-82
2023/07/04 13:04:01;;;;;;;6.13;5.63;;;24.70;55.80;;;;;;4941870;28;20566;-82